sensor_id;sensor_type;location;lat;lon;timestamp;temperature;humidity
20288;DHT22;10303;51.960;8.372;2023-06-14T00:00:59;21.70;48.60
20288;DHT22;10303;51.960;8.372;2023-06-14T00:03:24;21.60;48.70
20288;DHT22;10303;51.960;8.372;2023-06-14T00:05:51;21.60;48.70
20288;DHT22;10303;51.960;8.372;2023-06-14T00:08:17;21.60;48.80
20288;DHT22;10303;51.960;8.372;2023-06-14T00:10:44;21.50;48.80
20288;DHT22;10303;51.960;8.372;2023-06-14T00:13:11;21.50;49.50
20288;DHT22;10303;51.960;8.372;2023-06-14T00:15:37;21.40;48.90
20288;DHT22;10303;51.960;8.372;2023-06-14T00:18:04;21.40;49.00
20288;DHT22;10303;51.960;8.372;2023-06-14T00:20:32;21.40;49.10
20288;DHT22;10303;51.960;8.372;2023-06-14T00:23:02;21.30;49.20
20288;DHT22;10303;51.960;8.372;2023-06-14T00:25:28;21.30;49.40
20288;DHT22;10303;51.960;8.372;2023-06-14T00:27:55;21.30;49.20
20288;DHT22;10303;51.960;8.372;2023-06-14T00:30:22;21.20;49.30
20288;DHT22;10303;51.960;8.372;2023-06-14T00:32:48;21.20;49.40
20288;DHT22;10303;51.960;8.372;2023-06-14T00:35:15;21.10;49.30
20288;DHT22;10303;51.960;8.372;2023-06-14T00:37:41;21.10;49.40
20288;DHT22;10303;51.960;8.372;2023-06-14T00:40:08;21.00;49.40
20288;DHT22;10303;51.960;8.372;2023-06-14T00:42:34;21.00;49.50
20288;DHT22;10303;51.960;8.372;2023-06-14T00:45:00;21.00;49.60
20288;DHT22;10303;51.960;8.372;2023-06-14T00:47:26;20.90;50.30
20288;DHT22;10303;51.960;8.372;2023-06-14T00:49:53;20.90;49.70
20288;DHT22;10303;51.960;8.372;2023-06-14T00:52:21;20.80;49.80
20288;DHT22;10303;51.960;8.372;2023-06-14T00:54:50;20.80;49.90
20288;DHT22;10303;51.960;8.372;2023-06-14T00:57:16;20.70;49.90
20288;DHT22;10303;51.960;8.372;2023-06-14T00:59:48;20.70;50.00
20288;DHT22;10303;51.960;8.372;2023-06-14T01:02:16;20.60;50.30
20288;DHT22;10303;51.960;8.372;2023-06-14T01:04:47;20.60;50.80
20288;DHT22;10303;51.960;8.372;2023-06-14T01:07:23;20.50;50.30
20288;DHT22;10303;51.960;8.372;2023-06-14T01:10:12;20.50;50.60
20288;DHT22;10303;51.960;8.372;2023-06-14T01:15:57;20.40;50.50
20288;DHT22;10303;51.960;8.372;2023-06-14T01:18:24;20.40;50.30
20288;DHT22;10303;51.960;8.372;2023-06-14T01:20:52;20.30;51.00
20288;DHT22;10303;51.960;8.372;2023-06-14T01:23:24;20.20;50.50
20288;DHT22;10303;51.960;8.372;2023-06-14T01:25:51;20.20;50.60
20288;DHT22;10303;51.960;8.372;2023-06-14T01:28:21;20.10;50.80
20288;DHT22;10303;51.960;8.372;2023-06-14T01:30:52;20.10;51.10
20288;DHT22;10303;51.960;8.372;2023-06-14T01:33:26;20.00;51.20
20288;DHT22;10303;51.960;8.372;2023-06-14T01:35:55;20.00;51.30
20288;DHT22;10303;51.960;8.372;2023-06-14T01:38:24;19.90;51.00
20288;DHT22;10303;51.960;8.372;2023-06-14T01:40:54;19.90;51.10
20288;DHT22;10303;51.960;8.372;2023-06-14T01:43:25;19.90;51.70
20288;DHT22;10303;51.960;8.372;2023-06-14T01:45:53;19.80;51.10
20288;DHT22;10303;51.960;8.372;2023-06-14T01:48:21;19.80;51.20
20288;DHT22;10303;51.960;8.372;2023-06-14T01:50:49;19.80;51.90
20288;DHT22;10303;51.960;8.372;2023-06-14T01:53:15;19.70;51.50
20288;DHT22;10303;51.960;8.372;2023-06-14T01:55:41;19.70;52.00
20288;DHT22;10303;51.960;8.372;2023-06-14T01:58:12;19.60;51.50
20288;DHT22;10303;51.960;8.372;2023-06-14T02:00:38;19.50;52.20
20288;DHT22;10303;51.960;8.372;2023-06-14T02:03:05;19.50;51.60
20288;DHT22;10303;51.960;8.372;2023-06-14T02:05:31;19.50;51.90
20288;DHT22;10303;51.960;8.372;2023-06-14T02:07:57;19.40;52.60
20288;DHT22;10303;51.960;8.372;2023-06-14T02:10:23;19.40;51.90
20288;DHT22;10303;51.960;8.372;2023-06-14T02:12:49;19.30;52.00
20288;DHT22;10303;51.960;8.372;2023-06-14T02:15:15;19.30;52.10
20288;DHT22;10303;51.960;8.372;2023-06-14T02:17:48;19.20;52.30
20288;DHT22;10303;51.960;8.372;2023-06-14T02:20:16;19.10;52.70
20288;DHT22;10303;51.960;8.372;2023-06-14T02:22:42;19.10;52.50
20288;DHT22;10303;51.960;8.372;2023-06-14T02:25:08;19.10;52.60
20288;DHT22;10303;51.960;8.372;2023-06-14T02:27:35;19.00;52.70
20288;DHT22;10303;51.960;8.372;2023-06-14T02:30:03;19.00;52.80
20288;DHT22;10303;51.960;8.372;2023-06-14T02:32:32;18.90;53.00
20288;DHT22;10303;51.960;8.372;2023-06-14T02:34:59;18.90;53.00
20288;DHT22;10303;51.960;8.372;2023-06-14T02:37:25;18.90;53.10
20288;DHT22;10303;51.960;8.372;2023-06-14T02:39:52;18.80;53.70
20288;DHT22;10303;51.960;8.372;2023-06-14T02:42:18;18.80;53.20
20288;DHT22;10303;51.960;8.372;2023-06-14T02:44:44;18.70;53.30
20288;DHT22;10303;51.960;8.372;2023-06-14T02:47:12;18.70;53.40
20288;DHT22;10303;51.960;8.372;2023-06-14T02:49:38;18.60;53.50
20288;DHT22;10303;51.960;8.372;2023-06-14T02:52:04;18.60;53.60
20288;DHT22;10303;51.960;8.372;2023-06-14T02:54:30;18.60;53.90
20288;DHT22;10303;51.960;8.372;2023-06-14T02:56:58;18.60;53.80
20288;DHT22;10303;51.960;8.372;2023-06-14T02:59:24;18.50;54.00
20288;DHT22;10303;51.960;8.372;2023-06-14T03:01:52;18.40;54.20
20288;DHT22;10303;51.960;8.372;2023-06-14T03:04:18;18.40;54.10
20288;DHT22;10303;51.960;8.372;2023-06-14T03:06:45;18.40;54.20
20288;DHT22;10303;51.960;8.372;2023-06-14T03:09:16;18.30;54.40
20288;DHT22;10303;51.960;8.372;2023-06-14T03:11:42;18.30;54.40
20288;DHT22;10303;51.960;8.372;2023-06-14T03:14:10;18.30;54.60
20288;DHT22;10303;51.960;8.372;2023-06-14T03:16:37;18.30;54.70
20288;DHT22;10303;51.960;8.372;2023-06-14T03:19:04;18.30;55.40
20288;DHT22;10303;51.960;8.372;2023-06-14T03:21:32;18.30;54.80
20288;DHT22;10303;51.960;8.372;2023-06-14T03:24:00;18.20;54.90
20288;DHT22;10303;51.960;8.372;2023-06-14T03:26:28;18.20;54.90
20288;DHT22;10303;51.960;8.372;2023-06-14T03:28:58;18.30;55.10
20288;DHT22;10303;51.960;8.372;2023-06-14T03:31:24;18.30;55.20
20288;DHT22;10303;51.960;8.372;2023-06-14T03:33:50;18.30;55.50
20288;DHT22;10303;51.960;8.372;2023-06-14T03:36:18;18.30;55.50
20288;DHT22;10303;51.960;8.372;2023-06-14T03:38:44;18.30;55.70
20288;DHT22;10303;51.960;8.372;2023-06-14T03:41:11;18.30;55.70
20288;DHT22;10303;51.960;8.372;2023-06-14T03:43:37;18.30;55.70
20288;DHT22;10303;51.960;8.372;2023-06-14T03:46:03;18.30;55.70
20288;DHT22;10303;51.960;8.372;2023-06-14T03:48:32;18.30;55.70
20288;DHT22;10303;51.960;8.372;2023-06-14T03:50:57;18.30;55.70
20288;DHT22;10303;51.960;8.372;2023-06-14T03:53:23;18.30;56.10
20288;DHT22;10303;51.960;8.372;2023-06-14T03:55:51;18.30;55.90
20288;DHT22;10303;51.960;8.372;2023-06-14T03:58:20;18.30;56.00
20288;DHT22;10303;51.960;8.372;2023-06-14T04:00:47;18.30;56.60
20288;DHT22;10303;51.960;8.372;2023-06-14T04:03:13;18.30;56.10
20288;DHT22;10303;51.960;8.372;2023-06-14T04:05:41;18.30;56.10
20288;DHT22;10303;51.960;8.372;2023-06-14T04:08:09;18.30;56.10
20288;DHT22;10303;51.960;8.372;2023-06-14T04:10:36;18.40;56.30
20288;DHT22;10303;51.960;8.372;2023-06-14T04:13:02;18.40;56.80
20288;DHT22;10303;51.960;8.372;2023-06-14T04:15:29;18.30;56.20
20288;DHT22;10303;51.960;8.372;2023-06-14T04:17:57;18.40;56.40
20288;DHT22;10303;51.960;8.372;2023-06-14T04:20:24;18.40;56.40
20288;DHT22;10303;51.960;8.372;2023-06-14T04:22:51;18.40;56.50
20288;DHT22;10303;51.960;8.372;2023-06-14T04:25:18;18.40;56.50
20288;DHT22;10303;51.960;8.372;2023-06-14T04:27:47;18.40;56.60
20288;DHT22;10303;51.960;8.372;2023-06-14T04:30:13;18.40;56.70
20288;DHT22;10303;51.960;8.372;2023-06-14T04:32:46;18.40;56.80
20288;DHT22;10303;51.960;8.372;2023-06-14T04:35:12;18.50;56.90
20288;DHT22;10303;51.960;8.372;2023-06-14T04:37:41;18.40;56.90
20288;DHT22;10303;51.960;8.372;2023-06-14T04:40:09;18.50;57.10
20288;DHT22;10303;51.960;8.372;2023-06-14T04:42:37;18.50;57.30
20288;DHT22;10303;51.960;8.372;2023-06-14T04:45:06;18.50;57.30
20288;DHT22;10303;51.960;8.372;2023-06-14T04:47:33;18.50;57.30
20288;DHT22;10303;51.960;8.372;2023-06-14T04:50:00;18.50;57.50
20288;DHT22;10303;51.960;8.372;2023-06-14T04:52:28;18.50;57.50
20288;DHT22;10303;51.960;8.372;2023-06-14T04:54:56;18.50;58.00
20288;DHT22;10303;51.960;8.372;2023-06-14T04:57:23;18.60;57.90
20288;DHT22;10303;51.960;8.372;2023-06-14T04:59:53;18.60;58.00
20288;DHT22;10303;51.960;8.372;2023-06-14T05:02:26;18.60;58.20
20288;DHT22;10303;51.960;8.372;2023-06-14T05:04:53;18.60;58.60
20288;DHT22;10303;51.960;8.372;2023-06-14T05:07:22;18.70;58.40
20288;DHT22;10303;51.960;8.372;2023-06-14T05:09:50;18.70;58.20
20288;DHT22;10303;51.960;8.372;2023-06-14T05:12:16;18.80;58.20
20288;DHT22;10303;51.960;8.372;2023-06-14T05:14:44;18.80;58.40
20288;DHT22;10303;51.960;8.372;2023-06-14T05:17:11;18.90;58.40
20288;DHT22;10303;51.960;8.372;2023-06-14T05:19:37;18.90;58.40
20288;DHT22;10303;51.960;8.372;2023-06-14T05:22:03;18.90;58.50
20288;DHT22;10303;51.960;8.372;2023-06-14T05:24:29;18.90;58.70
20288;DHT22;10303;51.960;8.372;2023-06-14T05:26:58;19.00;59.10
20288;DHT22;10303;51.960;8.372;2023-06-14T05:29:24;19.10;59.30
20288;DHT22;10303;51.960;8.372;2023-06-14T05:31:50;19.10;59.10
20288;DHT22;10303;51.960;8.372;2023-06-14T05:34:16;19.10;59.00
20288;DHT22;10303;51.960;8.372;2023-06-14T05:36:42;19.20;59.00
20288;DHT22;10303;51.960;8.372;2023-06-14T05:39:08;19.20;59.10
20288;DHT22;10303;51.960;8.372;2023-06-14T05:41:34;19.30;59.50
20288;DHT22;10303;51.960;8.372;2023-06-14T05:44:01;19.30;59.40
20288;DHT22;10303;51.960;8.372;2023-06-14T05:46:27;19.40;59.30
20288;DHT22;10303;51.960;8.372;2023-06-14T05:48:54;19.40;59.30
20288;DHT22;10303;51.960;8.372;2023-06-14T05:51:21;19.50;59.50
20288;DHT22;10303;51.960;8.372;2023-06-14T05:53:50;19.50;59.30
20288;DHT22;10303;51.960;8.372;2023-06-14T05:56:17;19.60;59.30
20288;DHT22;10303;51.960;8.372;2023-06-14T05:58:44;19.60;59.20
20288;DHT22;10303;51.960;8.372;2023-06-14T06:01:10;19.60;59.20
20288;DHT22;10303;51.960;8.372;2023-06-14T06:03:37;19.70;59.10
20288;DHT22;10303;51.960;8.372;2023-06-14T06:06:03;19.80;59.30
20288;DHT22;10303;51.960;8.372;2023-06-14T06:08:29;19.80;59.40
20288;DHT22;10303;51.960;8.372;2023-06-14T06:10:56;19.90;59.90
20288;DHT22;10303;51.960;8.372;2023-06-14T06:13:22;19.90;59.40
20288;DHT22;10303;51.960;8.372;2023-06-14T06:15:48;19.90;59.20
20288;DHT22;10303;51.960;8.372;2023-06-14T06:18:14;20.00;59.40
20288;DHT22;10303;51.960;8.372;2023-06-14T06:20:40;20.10;59.60
20288;DHT22;10303;51.960;8.372;2023-06-14T06:23:06;20.10;59.50
20288;DHT22;10303;51.960;8.372;2023-06-14T06:25:33;20.20;59.40
20288;DHT22;10303;51.960;8.372;2023-06-14T06:27:59;20.20;59.20
20288;DHT22;10303;51.960;8.372;2023-06-14T06:30:25;20.30;59.20
20288;DHT22;10303;51.960;8.372;2023-06-14T06:32:52;20.30;59.10
20288;DHT22;10303;51.960;8.372;2023-06-14T06:35:18;20.30;59.20
20288;DHT22;10303;51.960;8.372;2023-06-14T06:37:44;20.40;59.60
20288;DHT22;10303;51.960;8.372;2023-06-14T06:40:10;20.40;59.80
20288;DHT22;10303;51.960;8.372;2023-06-14T06:42:36;20.50;58.90
20288;DHT22;10303;51.960;8.372;2023-06-14T06:45:04;20.50;58.80
20288;DHT22;10303;51.960;8.372;2023-06-14T06:47:31;20.50;58.80
20288;DHT22;10303;51.960;8.372;2023-06-14T06:49:57;20.60;58.60
20288;DHT22;10303;51.960;8.372;2023-06-14T06:52:23;20.60;59.00
20288;DHT22;10303;51.960;8.372;2023-06-14T06:54:49;20.60;59.10
20288;DHT22;10303;51.960;8.372;2023-06-14T06:57:16;20.70;58.50
20288;DHT22;10303;51.960;8.372;2023-06-14T06:59:42;20.80;58.40
20288;DHT22;10303;51.960;8.372;2023-06-14T07:02:07;20.80;58.30
20288;DHT22;10303;51.960;8.372;2023-06-14T07:04:33;20.90;58.40
20288;DHT22;10303;51.960;8.372;2023-06-14T07:06:59;20.90;58.30
20288;DHT22;10303;51.960;8.372;2023-06-14T07:09:26;20.90;58.10
20288;DHT22;10303;51.960;8.372;2023-06-14T07:11:52;21.00;58.10
20288;DHT22;10303;51.960;8.372;2023-06-14T07:14:17;21.00;58.10
20288;DHT22;10303;51.960;8.372;2023-06-14T07:16:43;21.00;58.10
20288;DHT22;10303;51.960;8.372;2023-06-14T07:19:10;21.10;57.90
20288;DHT22;10303;51.960;8.372;2023-06-14T07:21:36;21.10;58.00
20288;DHT22;10303;51.960;8.372;2023-06-14T07:24:08;21.20;58.10
20288;DHT22;10303;51.960;8.372;2023-06-14T07:26:34;21.30;58.10
20288;DHT22;10303;51.960;8.372;2023-06-14T07:29:01;21.30;58.10
20288;DHT22;10303;51.960;8.372;2023-06-14T07:31:27;21.40;58.20
20288;DHT22;10303;51.960;8.372;2023-06-14T07:33:53;21.50;58.00
20288;DHT22;10303;51.960;8.372;2023-06-14T07:36:19;21.50;58.10
20288;DHT22;10303;51.960;8.372;2023-06-14T07:38:46;21.60;58.10
20288;DHT22;10303;51.960;8.372;2023-06-14T07:41:11;21.60;57.90
20288;DHT22;10303;51.960;8.372;2023-06-14T07:43:37;21.80;57.90
20288;DHT22;10303;51.960;8.372;2023-06-14T07:46:04;21.80;57.80
20288;DHT22;10303;51.960;8.372;2023-06-14T07:48:30;21.80;57.70
20288;DHT22;10303;51.960;8.372;2023-06-14T07:50:56;21.90;57.80
20288;DHT22;10303;51.960;8.372;2023-06-14T07:53:22;22.00;57.80
20288;DHT22;10303;51.960;8.372;2023-06-14T07:55:48;22.10;57.70
20288;DHT22;10303;51.960;8.372;2023-06-14T07:58:15;22.20;57.70
20288;DHT22;10303;51.960;8.372;2023-06-14T08:00:41;22.30;57.80
20288;DHT22;10303;51.960;8.372;2023-06-14T08:03:07;22.40;57.70
20288;DHT22;10303;51.960;8.372;2023-06-14T08:05:36;22.50;57.70
20288;DHT22;10303;51.960;8.372;2023-06-14T08:08:02;22.60;57.60
20288;DHT22;10303;51.960;8.372;2023-06-14T08:10:28;22.70;57.60
20288;DHT22;10303;51.960;8.372;2023-06-14T08:12:54;22.80;57.20
20288;DHT22;10303;51.960;8.372;2023-06-14T08:15:20;22.90;56.90
20288;DHT22;10303;51.960;8.372;2023-06-14T08:17:46;23.00;57.20
20288;DHT22;10303;51.960;8.372;2023-06-14T08:20:13;23.10;57.80
20288;DHT22;10303;51.960;8.372;2023-06-14T08:22:42;23.20;57.30
20288;DHT22;10303;51.960;8.372;2023-06-14T08:25:09;23.40;57.20
20288;DHT22;10303;51.960;8.372;2023-06-14T08:27:36;23.50;56.70
20288;DHT22;10303;51.960;8.372;2023-06-14T08:30:03;23.60;56.70
20288;DHT22;10303;51.960;8.372;2023-06-14T08:32:30;23.80;56.50
20288;DHT22;10303;51.960;8.372;2023-06-14T08:34:56;23.90;56.50
20288;DHT22;10303;51.960;8.372;2023-06-14T08:37:21;24.00;56.30
20288;DHT22;10303;51.960;8.372;2023-06-14T08:39:47;24.20;55.80
20288;DHT22;10303;51.960;8.372;2023-06-14T08:42:14;24.40;55.60
20288;DHT22;10303;51.960;8.372;2023-06-14T08:44:41;24.50;55.30
20288;DHT22;10303;51.960;8.372;2023-06-14T08:47:07;24.60;55.70
20288;DHT22;10303;51.960;8.372;2023-06-14T08:49:38;24.80;55.50
20288;DHT22;10303;51.960;8.372;2023-06-14T08:52:09;24.90;54.90
20288;DHT22;10303;51.960;8.372;2023-06-14T08:54:38;25.10;56.00
20288;DHT22;10303;51.960;8.372;2023-06-14T08:57:11;25.20;54.70
20288;DHT22;10303;51.960;8.372;2023-06-14T08:59:46;25.40;54.90
20288;DHT22;10303;51.960;8.372;2023-06-14T09:02:15;25.60;55.00
20288;DHT22;10303;51.960;8.372;2023-06-14T09:04:45;25.70;55.40
20288;DHT22;10303;51.960;8.372;2023-06-14T09:07:12;25.90;54.50
20288;DHT22;10303;51.960;8.372;2023-06-14T09:09:39;26.00;54.40
20288;DHT22;10303;51.960;8.372;2023-06-14T09:12:08;26.20;54.50
20288;DHT22;10303;51.960;8.372;2023-06-14T09:14:36;26.30;54.80
20288;DHT22;10303;51.960;8.372;2023-06-14T09:17:06;26.50;53.70
20288;DHT22;10303;51.960;8.372;2023-06-14T09:19:33;26.60;53.80
20288;DHT22;10303;51.960;8.372;2023-06-14T09:22:02;26.70;53.90
20288;DHT22;10303;51.960;8.372;2023-06-14T09:24:29;26.90;53.30
20288;DHT22;10303;51.960;8.372;2023-06-14T09:26:55;27.00;53.30
20288;DHT22;10303;51.960;8.372;2023-06-14T09:29:22;27.10;53.30
20288;DHT22;10303;51.960;8.372;2023-06-14T09:31:49;27.20;53.50
20288;DHT22;10303;51.960;8.372;2023-06-14T09:34:16;27.30;53.50
20288;DHT22;10303;51.960;8.372;2023-06-14T09:36:45;27.50;52.50
20288;DHT22;10303;51.960;8.372;2023-06-14T09:39:17;27.70;53.10
20288;DHT22;10303;51.960;8.372;2023-06-14T09:41:43;27.80;52.20
20288;DHT22;10303;51.960;8.372;2023-06-14T09:44:10;27.90;51.80
20288;DHT22;10303;51.960;8.372;2023-06-14T09:46:39;28.00;52.00
20288;DHT22;10303;51.960;8.372;2023-06-14T09:49:05;28.10;51.30
20288;DHT22;10303;51.960;8.372;2023-06-14T09:51:33;28.20;51.20
20288;DHT22;10303;51.960;8.372;2023-06-14T09:54:02;28.30;51.30
20288;DHT22;10303;51.960;8.372;2023-06-14T09:56:37;28.40;50.90
20288;DHT22;10303;51.960;8.372;2023-06-14T09:59:09;28.40;50.80
20288;DHT22;10303;51.960;8.372;2023-06-14T10:01:44;28.50;51.10
20288;DHT22;10303;51.960;8.372;2023-06-14T10:04:12;28.60;50.90
20288;DHT22;10303;51.960;8.372;2023-06-14T10:06:43;28.70;51.00
20288;DHT22;10303;51.960;8.372;2023-06-14T10:09:12;28.80;50.50
20288;DHT22;10303;51.960;8.372;2023-06-14T10:11:40;29.00;51.00
20288;DHT22;10303;51.960;8.372;2023-06-14T10:14:12;29.10;50.80
20288;DHT22;10303;51.960;8.372;2023-06-14T10:17:04;29.30;51.40
20288;DHT22;10303;51.960;8.372;2023-06-14T10:19:42;29.50;50.60
20288;DHT22;10303;51.960;8.372;2023-06-14T10:22:40;29.70;50.80
20288;DHT22;10303;51.960;8.372;2023-06-14T10:25:31;29.80;49.70
20288;DHT22;10303;51.960;8.372;2023-06-14T10:28:19;30.10;50.10
20288;DHT22;10303;51.960;8.372;2023-06-14T10:31:10;30.30;50.40
20288;DHT22;10303;51.960;8.372;2023-06-14T10:33:56;30.60;49.50
20288;DHT22;10303;51.960;8.372;2023-06-14T10:39:17;31.00;49.00
20288;DHT22;10303;51.960;8.372;2023-06-14T10:41:52;31.10;48.30
20288;DHT22;10303;51.960;8.372;2023-06-14T10:46:49;31.40;48.10
20288;DHT22;10303;51.960;8.372;2023-06-14T10:52:42;31.70;47.10
20288;DHT22;10303;51.960;8.372;2023-06-14T10:55:15;31.80;47.20
20288;DHT22;10303;51.960;8.372;2023-06-14T10:57:50;31.90;47.50
20288;DHT22;10303;51.960;8.372;2023-06-14T11:00:20;32.00;47.00
20288;DHT22;10303;51.960;8.372;2023-06-14T11:05:50;32.20;46.10
20288;DHT22;10303;51.960;8.372;2023-06-14T11:11:08;32.30;46.40
20288;DHT22;10303;51.960;8.372;2023-06-14T11:13:39;32.40;46.10
20288;DHT22;10303;51.960;8.372;2023-06-14T11:16:13;32.30;44.90
20288;DHT22;10303;51.960;8.372;2023-06-14T11:18:40;32.30;45.00
20288;DHT22;10303;51.960;8.372;2023-06-14T11:21:06;32.30;45.20
20288;DHT22;10303;51.960;8.372;2023-06-14T11:23:35;32.30;46.10
20288;DHT22;10303;51.960;8.372;2023-06-14T11:26:01;32.30;46.00
20288;DHT22;10303;51.960;8.372;2023-06-14T11:28:40;32.30;46.00
20288;DHT22;10303;51.960;8.372;2023-06-14T11:31:07;32.30;46.00
20288;DHT22;10303;51.960;8.372;2023-06-14T11:33:35;32.50;46.70
20288;DHT22;10303;51.960;8.372;2023-06-14T11:36:05;32.50;46.70
20288;DHT22;10303;51.960;8.372;2023-06-14T11:38:36;32.70;46.10
20288;DHT22;10303;51.960;8.372;2023-06-14T11:41:02;32.80;46.00
20288;DHT22;10303;51.960;8.372;2023-06-14T11:43:28;32.90;45.30
20288;DHT22;10303;51.960;8.372;2023-06-14T11:45:57;32.90;45.70
20288;DHT22;10303;51.960;8.372;2023-06-14T11:48:23;33.10;44.90
20288;DHT22;10303;51.960;8.372;2023-06-14T11:50:50;33.20;44.70
20288;DHT22;10303;51.960;8.372;2023-06-14T11:53:17;33.20;44.80
20288;DHT22;10303;51.960;8.372;2023-06-14T11:55:43;33.30;44.20
20288;DHT22;10303;51.960;8.372;2023-06-14T11:58:11;33.30;44.20
20288;DHT22;10303;51.960;8.372;2023-06-14T12:00:37;33.30;43.60
20288;DHT22;10303;51.960;8.372;2023-06-14T12:03:04;33.30;43.50
20288;DHT22;10303;51.960;8.372;2023-06-14T12:05:30;33.40;44.40
20288;DHT22;10303;51.960;8.372;2023-06-14T12:07:59;33.50;44.10
20288;DHT22;10303;51.960;8.372;2023-06-14T12:10:28;33.50;43.70
20288;DHT22;10303;51.960;8.372;2023-06-14T12:12:58;33.60;43.50
20288;DHT22;10303;51.960;8.372;2023-06-14T12:15:28;33.60;43.80
20288;DHT22;10303;51.960;8.372;2023-06-14T12:18:00;33.70;43.90
20288;DHT22;10303;51.960;8.372;2023-06-14T12:20:30;33.80;43.00
20288;DHT22;10303;51.960;8.372;2023-06-14T12:22:59;33.80;42.40
20288;DHT22;10303;51.960;8.372;2023-06-14T12:25:27;33.90;42.70
20288;DHT22;10303;51.960;8.372;2023-06-14T12:28:14;33.80;41.90
20288;DHT22;10303;51.960;8.372;2023-06-14T12:30:40;33.80;42.00
20288;DHT22;10303;51.960;8.372;2023-06-14T12:33:06;33.80;41.60
20288;DHT22;10303;51.960;8.372;2023-06-14T12:35:33;33.60;41.90
20288;DHT22;10303;51.960;8.372;2023-06-14T12:37:58;33.50;42.10
20288;DHT22;10303;51.960;8.372;2023-06-14T12:40:25;33.40;41.50
20288;DHT22;10303;51.960;8.372;2023-06-14T12:42:52;33.40;42.30
20288;DHT22;10303;51.960;8.372;2023-06-14T12:45:17;33.30;42.50
20288;DHT22;10303;51.960;8.372;2023-06-14T12:47:43;33.30;42.40
20288;DHT22;10303;51.960;8.372;2023-06-14T12:50:09;33.30;42.10
20288;DHT22;10303;51.960;8.372;2023-06-14T12:52:36;33.30;42.00
20288;DHT22;10303;51.960;8.372;2023-06-14T12:55:05;33.20;42.30
20288;DHT22;10303;51.960;8.372;2023-06-14T12:57:32;33.20;42.30
20288;DHT22;10303;51.960;8.372;2023-06-14T13:00:00;33.30;42.70
20288;DHT22;10303;51.960;8.372;2023-06-14T13:02:26;33.30;42.40
20288;DHT22;10303;51.960;8.372;2023-06-14T13:04:52;33.30;42.10
20288;DHT22;10303;51.960;8.372;2023-06-14T13:07:18;33.40;42.00
20288;DHT22;10303;51.960;8.372;2023-06-14T13:09:44;33.40;42.20
20288;DHT22;10303;51.960;8.372;2023-06-14T13:12:10;33.40;41.80
20288;DHT22;10303;51.960;8.372;2023-06-14T13:14:38;33.40;41.90
20288;DHT22;10303;51.960;8.372;2023-06-14T13:17:07;33.40;41.70
20288;DHT22;10303;51.960;8.372;2023-06-14T13:19:34;33.30;42.10
20288;DHT22;10303;51.960;8.372;2023-06-14T13:22:00;33.30;41.80
20288;DHT22;10303;51.960;8.372;2023-06-14T13:24:26;33.20;41.40
20288;DHT22;10303;51.960;8.372;2023-06-14T13:26:52;33.20;41.50
20288;DHT22;10303;51.960;8.372;2023-06-14T13:29:18;33.00;41.20
20288;DHT22;10303;51.960;8.372;2023-06-14T13:31:44;33.00;41.20
20288;DHT22;10303;51.960;8.372;2023-06-14T13:34:10;32.90;41.40
20288;DHT22;10303;51.960;8.372;2023-06-14T13:36:36;32.80;41.80
20288;DHT22;10303;51.960;8.372;2023-06-14T13:39:02;32.70;41.90
20288;DHT22;10303;51.960;8.372;2023-06-14T13:41:28;32.60;41.70
20288;DHT22;10303;51.960;8.372;2023-06-14T13:44:00;32.60;41.60
20288;DHT22;10303;51.960;8.372;2023-06-14T13:46:29;32.50;41.80
20288;DHT22;10303;51.960;8.372;2023-06-14T13:48:55;32.50;41.80
20288;DHT22;10303;51.960;8.372;2023-06-14T13:51:21;32.40;41.90
20288;DHT22;10303;51.960;8.372;2023-06-14T13:53:50;32.40;41.70
20288;DHT22;10303;51.960;8.372;2023-06-14T13:56:17;32.30;42.00
20288;DHT22;10303;51.960;8.372;2023-06-14T13:58:44;32.30;42.20
20288;DHT22;10303;51.960;8.372;2023-06-14T14:01:11;32.30;42.10
20288;DHT22;10303;51.960;8.372;2023-06-14T14:03:37;32.20;42.10
20288;DHT22;10303;51.960;8.372;2023-06-14T14:06:04;32.20;42.40
20288;DHT22;10303;51.960;8.372;2023-06-14T14:08:31;32.20;42.40
20288;DHT22;10303;51.960;8.372;2023-06-14T14:10:58;32.10;42.40
20288;DHT22;10303;51.960;8.372;2023-06-14T14:13:24;32.10;42.20
20288;DHT22;10303;51.960;8.372;2023-06-14T14:15:50;32.10;42.30
20288;DHT22;10303;51.960;8.372;2023-06-14T14:18:16;32.10;42.10
20288;DHT22;10303;51.960;8.372;2023-06-14T14:20:42;32.10;42.20
20288;DHT22;10303;51.960;8.372;2023-06-14T14:23:08;32.10;42.50
20288;DHT22;10303;51.960;8.372;2023-06-14T14:25:34;32.00;42.40
20288;DHT22;10303;51.960;8.372;2023-06-14T14:28:01;32.00;42.60
20288;DHT22;10303;51.960;8.372;2023-06-14T14:30:27;31.90;43.00
20288;DHT22;10303;51.960;8.372;2023-06-14T14:32:53;31.90;42.90
20288;DHT22;10303;51.960;8.372;2023-06-14T14:35:19;31.80;42.70
20288;DHT22;10303;51.960;8.372;2023-06-14T14:37:45;31.70;42.30
20288;DHT22;10303;51.960;8.372;2023-06-14T14:40:11;31.60;42.10
20288;DHT22;10303;51.960;8.372;2023-06-14T14:42:37;31.50;42.60
20288;DHT22;10303;51.960;8.372;2023-06-14T14:45:04;31.40;42.80
20288;DHT22;10303;51.960;8.372;2023-06-14T14:47:30;31.30;42.60
20288;DHT22;10303;51.960;8.372;2023-06-14T14:49:56;31.20;42.70
20288;DHT22;10303;51.960;8.372;2023-06-14T14:52:22;31.10;42.90
20288;DHT22;10303;51.960;8.372;2023-06-14T14:54:47;31.00;43.00
20288;DHT22;10303;51.960;8.372;2023-06-14T14:57:13;30.80;43.00
20288;DHT22;10303;51.960;8.372;2023-06-14T14:59:39;30.70;43.40
20288;DHT22;10303;51.960;8.372;2023-06-14T15:02:05;30.60;43.40
20288;DHT22;10303;51.960;8.372;2023-06-14T15:04:31;30.50;43.60
20288;DHT22;10303;51.960;8.372;2023-06-14T15:06:57;30.50;43.90
20288;DHT22;10303;51.960;8.372;2023-06-14T15:09:23;30.40;43.90
20288;DHT22;10303;51.960;8.372;2023-06-14T15:11:49;30.40;44.40
20288;DHT22;10303;51.960;8.372;2023-06-14T15:14:15;30.30;43.90
20288;DHT22;10303;51.960;8.372;2023-06-14T15:16:41;30.20;44.00
20288;DHT22;10303;51.960;8.372;2023-06-14T15:19:07;30.10;43.90
20288;DHT22;10303;51.960;8.372;2023-06-14T15:21:33;30.00;44.20
20288;DHT22;10303;51.960;8.372;2023-06-14T15:23:59;29.90;44.60
20288;DHT22;10303;51.960;8.372;2023-06-14T15:26:25;29.80;44.50
20288;DHT22;10303;51.960;8.372;2023-06-14T15:28:51;29.80;44.50
20288;DHT22;10303;51.960;8.372;2023-06-14T15:31:17;29.70;44.40
20288;DHT22;10303;51.960;8.372;2023-06-14T15:33:43;29.60;44.40
20288;DHT22;10303;51.960;8.372;2023-06-14T15:36:10;29.50;45.40
20288;DHT22;10303;51.960;8.372;2023-06-14T15:38:37;29.50;44.60
20288;DHT22;10303;51.960;8.372;2023-06-14T15:41:03;29.50;44.50
20288;DHT22;10303;51.960;8.372;2023-06-14T15:43:29;29.40;45.10
20288;DHT22;10303;51.960;8.372;2023-06-14T15:45:55;29.30;45.20
20288;DHT22;10303;51.960;8.372;2023-06-14T15:48:21;29.20;45.20
20288;DHT22;10303;51.960;8.372;2023-06-14T15:50:46;29.20;45.20